createdAt,value
2022-08-28T00:01:26.479Z,11.60
2022-08-28T00:03:00.224Z,12.10
2022-08-28T00:04:33.692Z,12.50
2022-08-28T00:06:08.804Z,12.82
2022-08-28T00:07:45.512Z,12.23
2022-08-28T00:09:20.809Z,12.27
2022-08-28T00:12:27.385Z,11.45
2022-08-28T00:14:00.923Z,12.77
2022-08-28T00:15:35.937Z,12.07
2022-08-28T00:17:09.332Z,12.18
2022-08-28T00:18:42.458Z,12.95
2022-08-28T00:20:18.618Z,12.43
2022-08-28T00:21:53.979Z,12.25
2022-08-28T00:23:30.379Z,12.73
2022-08-28T00:25:17.577Z,12.63
2022-08-28T00:27:08.019Z,12.95
2022-08-28T00:28:40.031Z,12.85
2022-08-28T00:30:13.741Z,12.55
2022-08-28T00:31:47.061Z,12.73
2022-08-28T00:33:24.676Z,12.95
2022-08-28T00:34:57.838Z,12.45
2022-08-28T00:36:31.132Z,12.70
2022-08-28T00:38:06.017Z,12.65
2022-08-28T00:39:39.961Z,13.05
2022-08-28T00:41:13.853Z,12.45
2022-08-28T00:42:48.929Z,12.60
2022-08-28T00:44:24.955Z,11.25
2022-08-28T00:45:57.035Z,12.05
2022-08-28T00:47:30.212Z,12.27
2022-08-28T00:50:51.146Z,11.90
2022-08-28T00:52:25.589Z,12.88
2022-08-28T00:54:01.380Z,12.43
2022-08-28T00:55:37.712Z,12.80
2022-08-28T00:57:14.644Z,13.07
2022-08-28T00:58:50.934Z,12.63
2022-08-28T01:00:29.356Z,12.52
2022-08-28T01:02:02.701Z,13.20
2022-08-28T01:03:36.985Z,12.95
2022-08-28T01:05:10.834Z,12.80
2022-08-28T01:06:45.066Z,12.32
2022-08-28T01:08:18.713Z,13.15
2022-08-28T01:09:55.897Z,12.57
2022-08-28T01:11:29.217Z,12.45
2022-08-28T01:13:04.057Z,12.82
2022-08-28T01:14:39.134Z,13.25
2022-08-28T01:16:12.520Z,13.00
2022-08-28T01:17:49.090Z,12.43
2022-08-28T01:19:31.616Z,13.20
2022-08-28T01:21:11.765Z,12.27
2022-08-28T01:23:00.041Z,11.43
2022-08-28T01:24:35.912Z,12.07
2022-08-28T01:26:11.761Z,12.13
2022-08-28T01:27:45.402Z,12.93
2022-08-28T01:29:18.837Z,12.20
2022-08-28T01:30:52.118Z,11.68
2022-08-28T01:32:34.920Z,12.75
2022-08-28T01:34:09.975Z,12.20
2022-08-28T01:35:45.941Z,12.07
2022-08-28T01:37:19.429Z,12.40
2022-08-28T01:38:58.987Z,12.32
2022-08-28T01:40:37.224Z,12.80
2022-08-28T01:42:10.557Z,12.55
2022-08-28T01:45:17.921Z,12.27
2022-08-28T01:46:51.565Z,13.05
2022-08-28T01:48:27.429Z,13.20
2022-08-28T01:50:00.676Z,12.55
2022-08-28T01:53:14.023Z,11.48
2022-08-28T01:54:47.868Z,12.05
2022-08-28T01:56:22.321Z,11.88
2022-08-28T01:57:56.218Z,12.70
2022-08-28T01:59:29.382Z,12.45
2022-08-28T02:01:01.467Z,12.52
2022-08-28T02:02:34.401Z,12.55
2022-08-28T02:04:06.689Z,12.77
2022-08-28T02:05:40.332Z,12.32
2022-08-28T02:07:14.146Z,12.07
2022-08-28T02:08:49.737Z,13.30
2022-08-28T02:10:25.352Z,12.93
2022-08-28T02:11:59.909Z,12.77
2022-08-28T02:13:33.052Z,12.45
2022-08-28T02:15:07.438Z,12.55
2022-08-28T02:16:40.416Z,12.43
2022-08-28T02:18:14.475Z,11.93
2022-08-28T02:19:47.735Z,12.68
2022-08-28T02:21:20.205Z,12.95
2022-08-28T02:22:53.670Z,11.82
2022-08-28T02:24:26.868Z,11.98
2022-08-28T02:27:33.219Z,12.02
2022-08-28T02:29:06.436Z,12.40
2022-08-28T02:32:13.182Z,12.25
2022-08-28T02:33:47.295Z,11.73
2022-08-28T02:35:21.839Z,12.68
2022-08-28T02:36:54.844Z,12.20
2022-08-28T02:38:29.121Z,12.63
2022-08-28T02:40:05.192Z,12.05
2022-08-28T02:41:39.211Z,12.05
2022-08-28T02:43:12.597Z,12.05
2022-08-28T02:44:45.654Z,12.70
2022-08-28T02:46:18.719Z,11.68
2022-08-28T02:47:53.187Z,11.88
2022-08-28T02:49:26.263Z,12.55
2022-08-28T02:51:06.508Z,11.68
2022-08-28T02:52:40.484Z,12.50
2022-08-28T02:54:13.633Z,12.35
2022-08-28T02:55:50.402Z,12.20
2022-08-28T02:57:23.397Z,12.07
2022-08-28T02:58:58.356Z,11.77
2022-08-28T03:00:30.304Z,12.30
2022-08-28T03:02:06.865Z,11.93
2022-08-28T03:03:41.638Z,12.27
2022-08-28T03:05:17.859Z,12.93
2022-08-28T03:06:51.106Z,11.77
2022-08-28T03:10:00.588Z,12.07
2022-08-28T03:11:33.872Z,12.20
2022-08-28T03:14:42.463Z,11.43
2022-08-28T03:16:15.521Z,11.63
2022-08-28T03:17:48.002Z,12.68
2022-08-28T03:19:21.010Z,12.73
2022-08-28T03:20:55.509Z,11.95
2022-08-28T03:22:42.547Z,12.55
2022-08-28T03:24:15.749Z,12.10
2022-08-28T03:25:48.229Z,12.73
2022-08-28T03:27:21.253Z,12.57
2022-08-28T03:28:57.589Z,12.18
2022-08-28T03:30:33.310Z,13.00
2022-08-28T03:32:06.477Z,12.85
2022-08-28T03:33:41.923Z,11.77
2022-08-28T03:35:15.078Z,12.57
2022-08-28T03:36:48.126Z,12.95
2022-08-28T03:38:21.469Z,12.30
2022-08-28T03:39:55.137Z,12.05
2022-08-28T03:41:30.274Z,12.05
2022-08-28T03:43:03.303Z,12.77
2022-08-28T03:44:40.751Z,12.43
2022-08-28T03:46:16.401Z,11.75
2022-08-28T03:47:49.886Z,12.00
2022-08-28T03:49:23.951Z,12.23
2022-08-28T03:50:57.452Z,13.57
2022-08-28T03:52:29.445Z,12.38
2022-08-28T03:54:04.263Z,12.20
2022-08-28T03:55:37.335Z,12.48
2022-08-28T03:57:09.342Z,12.50
2022-08-28T03:58:43.094Z,12.30
2022-08-28T04:00:16.350Z,12.20
2022-08-28T04:04:55.550Z,11.73
2022-08-28T04:06:29.123Z,11.60
2022-08-28T04:08:02.739Z,12.00
2022-08-28T04:09:34.810Z,12.38
2022-08-28T04:11:08.164Z,12.98
2022-08-28T04:12:40.360Z,12.00
2022-08-28T04:14:13.582Z,12.88
2022-08-28T04:17:19.907Z,11.40
2022-08-28T04:18:52.974Z,11.75
2022-08-28T04:20:26.450Z,11.77
2022-08-28T04:21:59.441Z,12.35
2022-08-28T04:23:32.534Z,11.77
2022-08-28T04:25:06.494Z,12.25
2022-08-28T04:26:39.668Z,12.13
2022-08-28T04:28:12.745Z,12.82
2022-08-28T04:31:19.340Z,11.60
2022-08-28T04:33:07.588Z,12.02
2022-08-28T04:34:40.775Z,11.77
2022-08-28T04:37:47.746Z,12.10
2022-08-28T04:39:21.207Z,11.77
2022-08-28T04:40:54.362Z,12.05
2022-08-28T04:42:27.509Z,12.23
2022-08-28T04:45:33.394Z,11.50
2022-08-28T04:47:06.775Z,11.57
2022-08-28T04:48:42.082Z,12.18
2022-08-28T04:50:16.326Z,11.90
2022-08-28T04:51:49.461Z,12.50
2022-08-28T04:53:22.689Z,12.43
2022-08-28T04:56:28.875Z,11.88
2022-08-28T04:58:01.917Z,12.23
2022-08-28T04:59:35.119Z,11.98
2022-08-28T05:02:42.826Z,11.70
2022-08-28T05:04:17.697Z,12.05
2022-08-28T05:05:52.792Z,12.05
2022-08-28T05:07:25.745Z,11.57
2022-08-28T05:08:59.626Z,11.93
2022-08-28T05:10:32.617Z,12.13
2022-08-28T05:12:06.950Z,11.25
2022-08-28T05:13:40.273Z,11.80
2022-08-28T05:16:50.556Z,11.50
2022-08-28T05:18:25.448Z,11.82
2022-08-28T05:19:59.784Z,11.93
2022-08-28T05:21:32.723Z,11.93
2022-08-28T05:23:07.463Z,12.07
2022-08-28T05:24:41.031Z,11.48
2022-08-28T05:26:13.864Z,11.35
2022-08-28T05:27:46.839Z,12.10
2022-08-28T05:29:19.793Z,11.85
2022-08-28T05:30:53.049Z,12.40
2022-08-28T05:32:25.990Z,11.77
2022-08-28T05:34:00.270Z,11.43
2022-08-28T05:35:37.457Z,11.55
2022-08-28T05:37:10.499Z,11.38
2022-08-28T05:38:44.267Z,12.00
2022-08-28T05:40:18.701Z,11.27
2022-08-28T05:41:51.862Z,11.48
2022-08-28T05:43:25.624Z,11.88
2022-08-28T05:44:59.457Z,11.60
2022-08-28T05:46:32.579Z,11.48
2022-08-28T05:48:05.794Z,11.40
2022-08-28T05:51:16.131Z,11.55
2022-08-28T05:52:49.419Z,11.30
2022-08-28T05:55:54.414Z,10.43
2022-08-28T05:57:27.648Z,11.00
2022-08-28T06:00:34.245Z,10.05
2022-08-28T06:02:07.660Z,10.77
2022-08-28T06:03:42.378Z,10.55
2022-08-28T06:05:15.518Z,10.73
2022-08-28T06:06:50.404Z,10.32
2022-08-28T06:08:22.932Z,10.57
2022-08-28T06:09:56.487Z,10.27
2022-08-28T06:11:31.260Z,10.23
2022-08-28T06:13:05.002Z,10.05
2022-08-28T06:14:38.436Z,10.65
2022-08-28T06:16:11.867Z,10.20
2022-08-28T06:17:44.976Z,10.45
2022-08-28T06:19:18.792Z,10.60
2022-08-28T06:20:52.154Z,10.57
2022-08-28T06:22:27.536Z,10.07
2022-08-28T06:24:00.838Z,10.82
2022-08-28T06:25:38.170Z,9.93
2022-08-28T06:27:11.207Z,9.90
2022-08-28T06:28:44.276Z,10.65
2022-08-28T06:30:17.878Z,10.00
2022-08-28T06:31:55.193Z,10.40
2022-08-28T06:33:28.345Z,9.90
2022-08-28T06:35:01.295Z,10.60
2022-08-28T06:36:36.442Z,10.18
2022-08-28T06:38:12.101Z,10.07
2022-08-28T06:39:45.225Z,10.35
2022-08-28T06:41:19.256Z,9.95
2022-08-28T06:42:52.457Z,10.65
2022-08-28T06:45:58.015Z,10.27
2022-08-28T06:47:31.048Z,9.65
2022-08-28T06:49:04.394Z,10.52
2022-08-28T06:50:40.135Z,9.80
2022-08-28T06:52:13.179Z,10.38
2022-08-28T06:53:48.342Z,9.75
2022-08-28T06:55:21.341Z,10.27
2022-08-28T06:56:54.479Z,9.80
2022-08-28T06:58:28.616Z,9.93
2022-08-28T07:00:02.037Z,9.80
2022-08-28T07:01:37.802Z,10.63
2022-08-28T07:03:10.217Z,9.60
2022-08-28T07:04:43.300Z,9.45
2022-08-28T07:06:16.715Z,9.98
2022-08-28T07:07:49.693Z,10.40
2022-08-28T07:09:25.094Z,10.35
2022-08-28T07:10:58.754Z,9.63
2022-08-28T07:12:31.792Z,9.95
2022-08-28T07:14:06.115Z,9.57
2022-08-28T07:15:41.891Z,9.38
2022-08-28T07:17:15.141Z,9.23
2022-08-28T07:18:48.231Z,9.30
2022-08-28T07:20:22.826Z,10.13
2022-08-28T07:21:56.880Z,9.52
2022-08-28T07:23:31.037Z,9.20
2022-08-28T07:25:06.244Z,8.73
2022-08-28T07:26:40.967Z,9.63
2022-08-28T07:28:14.231Z,9.50
2022-08-28T07:29:47.495Z,9.05
2022-08-28T07:31:23.613Z,9.38
2022-08-28T07:32:56.930Z,9.15
2022-08-28T07:36:03.259Z,8.68
2022-08-28T07:37:36.313Z,8.75
2022-08-28T07:39:15.817Z,9.25
2022-08-28T07:40:50.386Z,8.70
2022-08-28T07:42:40.781Z,8.90
2022-08-28T07:44:33.906Z,8.82
2022-08-28T07:46:09.607Z,8.27
2022-08-28T07:47:42.895Z,8.55
2022-08-28T07:50:50.547Z,7.90
2022-08-28T07:53:57.983Z,8.37
2022-08-28T07:55:31.856Z,8.05
2022-08-28T07:57:07.678Z,9.32
2022-08-28T07:58:40.431Z,8.50
2022-08-28T08:00:14.317Z,8.27
2022-08-28T08:01:49.358Z,7.78
2022-08-28T08:03:23.765Z,8.65
2022-08-28T08:04:56.654Z,7.97
2022-08-28T08:06:33.881Z,7.93
2022-08-28T08:08:07.610Z,7.95
2022-08-28T08:11:18.703Z,8.50
2022-08-28T08:12:53.444Z,8.40
2022-08-28T08:14:26.876Z,8.70
2022-08-28T08:16:04.707Z,8.00
2022-08-28T08:17:38.150Z,7.63
2022-08-28T08:19:14.326Z,8.23
2022-08-28T08:20:47.725Z,8.23
2022-08-28T08:22:21.036Z,7.60
2022-08-28T08:23:54.175Z,8.02
2022-08-28T08:27:02.567Z,7.50
2022-08-28T08:28:38.647Z,7.75
2022-08-28T08:30:13.078Z,7.35
2022-08-28T08:31:46.089Z,7.95
2022-08-28T08:33:19.484Z,7.38
2022-08-28T08:34:55.879Z,7.32
2022-08-28T08:36:30.203Z,7.05
2022-08-28T08:38:03.539Z,7.72
2022-08-28T08:39:37.968Z,6.93
2022-08-28T08:41:22.797Z,7.05
2022-08-28T08:42:57.276Z,7.25
2022-08-28T08:44:35.369Z,7.25
2022-08-28T08:46:09.204Z,7.25
2022-08-28T08:47:49.939Z,6.72
2022-08-28T08:49:26.819Z,6.80
2022-08-28T08:51:05.276Z,6.15
2022-08-28T08:52:46.882Z,6.57
2022-08-28T08:54:22.050Z,6.68
2022-08-28T08:55:58.364Z,6.45
2022-08-28T08:57:34.333Z,6.60
2022-08-28T08:59:11.917Z,6.32
2022-08-28T09:00:55.873Z,6.65
2022-08-28T09:02:37.271Z,6.97
2022-08-28T09:04:24.745Z,6.22
2022-08-28T09:06:03.232Z,6.32
2022-08-28T09:07:39.686Z,6.03
2022-08-28T09:09:22.345Z,6.20
2022-08-28T09:11:05.562Z,6.27
2022-08-28T09:12:51.333Z,6.78
2022-08-28T09:14:34.451Z,6.38
2022-08-28T09:16:19.264Z,6.10
2022-08-28T09:17:56.477Z,6.13
2022-08-28T09:19:30.799Z,6.60
2022-08-28T09:21:04.901Z,6.25
2022-08-28T09:22:38.570Z,5.80
2022-08-28T09:24:19.211Z,6.35
2022-08-28T09:25:55.870Z,6.28
2022-08-28T09:27:34.905Z,6.03
2022-08-28T09:29:18.401Z,5.97
2022-08-28T09:31:04.881Z,6.60
2022-08-28T09:32:43.871Z,5.60
2022-08-28T09:34:23.846Z,6.15
2022-08-28T09:35:57.177Z,5.28
2022-08-28T09:37:32.811Z,5.50
2022-08-28T09:39:09.068Z,5.03
2022-08-28T09:40:56.078Z,5.40
2022-08-28T09:42:46.702Z,5.30
2022-08-28T09:44:20.063Z,5.80
2022-08-28T09:46:00.198Z,5.15
2022-08-28T09:47:46.329Z,5.60
2022-08-28T09:49:27.440Z,4.93
2022-08-28T09:51:03.708Z,5.05
2022-08-28T09:52:36.781Z,5.50
2022-08-28T09:55:56.752Z,5.30
2022-08-28T09:57:30.005Z,5.15
2022-08-28T09:59:07.702Z,5.57
2022-08-28T10:00:46.358Z,5.47
2022-08-28T10:02:26.037Z,5.38
2022-08-28T10:04:17.949Z,4.95
2022-08-28T10:06:03.255Z,5.55
2022-08-28T10:07:48.289Z,5.10
2022-08-28T10:09:29.368Z,5.03
2022-08-28T10:11:12.257Z,5.35
2022-08-28T10:12:59.390Z,5.65
2022-08-28T10:14:44.653Z,5.40
2022-08-28T10:16:26.435Z,5.30
2022-08-28T10:18:18.105Z,5.45
2022-08-28T10:20:02.491Z,5.63
2022-08-28T10:21:42.680Z,5.32
2022-08-28T10:23:26.462Z,5.10
2022-08-28T10:25:11.704Z,5.68
2022-08-28T10:26:51.854Z,5.75
2022-08-28T10:28:43.912Z,5.47
2022-08-28T10:30:20.589Z,5.30
2022-08-28T10:32:13.322Z,5.25
2022-08-28T10:34:02.889Z,5.03
2022-08-28T10:35:46.781Z,4.80
2022-08-28T10:37:28.550Z,5.18
2022-08-28T10:39:16.461Z,5.00
2022-08-28T10:40:56.982Z,5.28
2022-08-28T10:42:35.808Z,5.20
2022-08-28T10:44:12.573Z,5.07
2022-08-28T10:45:46.630Z,5.43
2022-08-28T10:47:22.417Z,5.30
2022-08-28T10:49:03.254Z,5.43
2022-08-28T10:50:45.120Z,5.40
2022-08-28T10:52:23.067Z,5.57
2022-08-28T10:54:03.089Z,5.40
2022-08-28T10:55:40.579Z,5.13
2022-08-28T10:57:31.311Z,4.97
2022-08-28T10:59:05.733Z,5.30
2022-08-28T11:00:43.204Z,5.35
2022-08-28T11:02:20.147Z,5.38
2022-08-28T11:03:56.544Z,5.43
2022-08-28T11:05:37.152Z,4.90
2022-08-28T11:07:21.538Z,5.38
2022-08-28T11:08:58.094Z,5.60
2022-08-28T11:10:49.871Z,4.97
2022-08-28T11:12:43.541Z,5.30
2022-08-28T11:14:26.963Z,5.22
2022-08-28T11:16:00.408Z,4.93
2022-08-28T11:17:41.350Z,4.95
2022-08-28T11:19:33.723Z,5.70
2022-08-28T11:21:13.761Z,5.22
2022-08-28T11:22:53.171Z,5.50
2022-08-28T11:24:43.590Z,5.20
2022-08-28T11:26:29.799Z,5.00
2022-08-28T11:28:22.526Z,5.10
2022-08-28T11:30:33.180Z,4.70
2022-08-28T11:32:29.156Z,4.75
2022-08-28T11:34:02.848Z,5.30
2022-08-28T11:35:51.529Z,4.85
2022-08-28T11:37:38.924Z,5.15
2022-08-28T11:39:22.863Z,5.30
2022-08-28T11:41:11.409Z,5.18
2022-08-28T11:42:48.720Z,4.82
2022-08-28T11:44:45.055Z,4.80
2022-08-28T11:46:32.922Z,4.55
2022-08-28T11:48:07.036Z,4.88
2022-08-28T11:49:42.470Z,5.00
2022-08-28T11:51:37.462Z,4.70
2022-08-28T11:53:43.119Z,5.15
2022-08-28T11:55:26.351Z,5.68
2022-08-28T11:57:09.033Z,5.20
2022-08-28T11:58:50.323Z,5.10
2022-08-28T12:00:30.307Z,5.10
2022-08-28T12:02:36.888Z,4.60
2022-08-28T12:04:13.508Z,5.63
2022-08-28T12:05:52.388Z,5.18
2022-08-28T12:07:36.483Z,4.88
2022-08-28T12:09:11.049Z,5.15
2022-08-28T12:10:56.433Z,5.10
2022-08-28T12:12:53.574Z,4.70
2022-08-28T12:15:02.407Z,4.90
2022-08-28T12:17:17.277Z,5.40
2022-08-28T12:21:02.610Z,4.72
2022-08-28T12:22:46.411Z,5.20
2022-08-28T12:24:23.798Z,5.20
2022-08-28T12:26:03.057Z,5.15
2022-08-28T12:27:39.666Z,5.22
2022-08-28T12:29:29.585Z,5.20
2022-08-28T12:31:56.825Z,5.45
2022-08-28T12:33:38.931Z,5.68
2022-08-28T12:35:19.375Z,5.88
2022-08-28T12:36:57.137Z,5.03
2022-08-28T12:38:33.002Z,5.47
2022-08-28T12:40:15.512Z,5.40
2022-08-28T12:41:50.610Z,5.07
2022-08-28T12:43:32.213Z,5.40
2022-08-28T12:45:09.054Z,5.57
2022-08-28T12:46:44.729Z,5.72
2022-08-28T12:48:23.232Z,5.70
2022-08-28T12:49:56.648Z,5.55
2022-08-28T12:51:31.888Z,5.40
2022-08-28T12:53:08.042Z,5.70
2022-08-28T12:54:41.566Z,5.53
2022-08-28T12:56:17.357Z,5.47
2022-08-28T12:57:51.742Z,5.50
2022-08-28T12:59:27.262Z,5.78
2022-08-28T13:01:03.751Z,5.28
2022-08-28T13:02:37.659Z,5.18
2022-08-28T13:04:31.276Z,5.50
2022-08-28T13:06:07.276Z,5.60
2022-08-28T13:07:47.447Z,5.40
2022-08-28T13:09:27.382Z,6.00
2022-08-28T13:11:01.821Z,5.32
2022-08-28T13:12:54.368Z,5.32
2022-08-28T13:14:43.324Z,5.50
2022-08-28T13:16:37.677Z,5.00
2022-08-28T13:18:10.826Z,5.57
2022-08-28T13:21:35.043Z,5.53
2022-08-28T13:23:09.039Z,5.07
2022-08-28T13:24:47.268Z,4.75
2022-08-28T13:26:26.274Z,5.40
2022-08-28T13:28:02.996Z,4.78
2022-08-28T13:29:36.774Z,4.95
2022-08-28T13:31:24.886Z,5.47
2022-08-28T13:33:00.297Z,5.32
2022-08-28T13:34:35.398Z,5.00
2022-08-28T13:36:24.818Z,4.97
2022-08-28T13:37:59.868Z,4.90
2022-08-28T13:39:35.467Z,4.88
2022-08-28T13:41:12.250Z,4.70
2022-08-28T13:42:46.042Z,4.60
2022-08-28T13:44:33.422Z,4.30
2022-08-28T13:46:06.928Z,6.00
2022-08-28T13:47:43.685Z,4.85
2022-08-28T13:49:17.069Z,4.80
2022-08-28T13:50:53.704Z,4.90
2022-08-28T13:52:27.484Z,4.40
2022-08-28T13:54:00.900Z,4.65
2022-08-28T13:55:33.595Z,4.18
2022-08-28T13:57:07.613Z,4.57
2022-08-28T13:58:41.200Z,4.65
2022-08-28T14:00:16.209Z,4.50
2022-08-28T14:02:07.356Z,4.45
2022-08-28T14:03:41.344Z,4.55
2022-08-28T14:05:14.855Z,4.05
2022-08-28T14:06:48.251Z,4.30
2022-08-28T14:08:21.972Z,4.78
2022-08-28T14:09:56.504Z,4.35
2022-08-28T14:11:30.360Z,4.35
2022-08-28T14:13:03.937Z,4.60
2022-08-28T14:14:36.846Z,4.00
2022-08-28T14:17:44.745Z,4.32
2022-08-28T14:19:19.835Z,3.88
2022-08-28T14:20:53.844Z,4.13
2022-08-28T14:22:27.634Z,4.20
2022-08-28T14:24:02.235Z,4.10
2022-08-28T14:25:39.100Z,4.40
2022-08-28T14:27:12.872Z,4.55
2022-08-28T14:28:45.556Z,4.10
2022-08-28T14:30:19.359Z,4.40
2022-08-28T14:31:53.189Z,4.53
2022-08-28T14:33:27.087Z,4.45
2022-08-28T14:35:03.724Z,4.63
2022-08-28T14:36:37.883Z,4.20
2022-08-28T14:38:12.218Z,4.15
2022-08-28T14:39:45.780Z,4.13
2022-08-28T14:41:19.299Z,4.45
2022-08-28T14:42:52.916Z,4.65
2022-08-28T14:44:27.529Z,4.10
2022-08-28T14:46:00.983Z,4.20
2022-08-28T14:47:35.225Z,4.25
2022-08-28T14:49:11.169Z,4.45
2022-08-28T14:50:48.608Z,4.60
2022-08-28T14:52:22.620Z,4.28
2022-08-28T14:53:56.120Z,4.10
2022-08-28T14:55:29.710Z,4.25
2022-08-28T14:57:03.340Z,4.55
2022-08-28T14:58:37.394Z,4.75
2022-08-28T15:00:16.254Z,4.55
2022-08-28T15:01:49.552Z,4.55
2022-08-28T15:04:56.223Z,4.78
2022-08-28T15:06:31.512Z,4.50
2022-08-28T15:08:08.694Z,5.35
2022-08-28T15:09:43.762Z,5.05
2022-08-28T15:11:20.790Z,4.68
2022-08-28T15:12:54.331Z,4.50
2022-08-28T15:14:29.161Z,4.35
2022-08-28T15:16:04.310Z,4.30
2022-08-28T15:17:37.886Z,4.72
2022-08-28T15:19:13.202Z,4.88
2022-08-28T15:20:48.193Z,4.05
2022-08-28T15:22:27.227Z,4.20
2022-08-28T15:24:02.341Z,4.40
2022-08-28T15:25:35.756Z,4.55
2022-08-28T15:27:09.060Z,4.40
2022-08-28T15:28:45.177Z,4.25
2022-08-28T15:30:19.294Z,4.28
2022-08-28T15:31:55.489Z,4.45
2022-08-28T15:33:28.952Z,4.75
2022-08-28T15:35:02.556Z,4.60
2022-08-28T15:36:36.804Z,4.38
2022-08-28T15:38:12.121Z,4.40
2022-08-28T15:40:02.977Z,4.28
2022-08-28T15:41:37.129Z,4.55
2022-08-28T15:43:10.706Z,4.70
2022-08-28T15:44:44.701Z,4.10
2022-08-28T15:46:17.109Z,4.35
2022-08-28T15:47:50.518Z,4.22
2022-08-28T15:49:25.585Z,4.65
2022-08-28T15:50:58.865Z,4.72
2022-08-28T15:52:33.408Z,4.57
2022-08-28T15:54:08.394Z,4.40
2022-08-28T15:55:41.991Z,4.07
2022-08-28T15:57:15.373Z,6.78
2022-08-28T15:58:49.511Z,4.88
2022-08-28T16:00:23.204Z,4.78
2022-08-28T16:01:57.133Z,4.50
2022-08-28T16:03:30.673Z,4.70
2022-08-28T16:05:04.078Z,4.45
2022-08-28T16:06:38.129Z,4.40
2022-08-28T16:08:11.746Z,4.45
2022-08-28T16:09:46.524Z,4.70
2022-08-28T16:11:23.101Z,4.60
2022-08-28T16:12:57.507Z,4.28
2022-08-28T16:14:33.771Z,4.50
2022-08-28T16:16:07.516Z,4.57
2022-08-28T16:17:40.866Z,4.20
2022-08-28T16:19:14.802Z,4.43
2022-08-28T16:20:48.275Z,4.43
2022-08-28T16:22:21.601Z,4.50
2022-08-28T16:23:54.960Z,4.90
2022-08-28T16:25:30.080Z,4.20
2022-08-28T16:27:03.736Z,4.60
2022-08-28T16:28:40.005Z,4.78
2022-08-28T16:30:16.300Z,4.25
2022-08-28T16:31:49.881Z,4.68
2022-08-28T16:33:25.989Z,4.20
2022-08-28T16:34:59.447Z,4.35
2022-08-28T16:36:33.364Z,4.55
2022-08-28T16:38:05.708Z,4.18
2022-08-28T16:39:38.953Z,4.45
2022-08-28T16:41:12.809Z,4.10
2022-08-28T16:42:51.802Z,4.40
2022-08-28T16:44:26.805Z,4.50
2022-08-28T16:46:00.458Z,4.57
2022-08-28T16:47:35.382Z,4.70
2022-08-28T16:49:09.170Z,4.53
2022-08-28T16:50:43.006Z,4.40
2022-08-28T16:52:16.665Z,4.20
2022-08-28T16:53:50.141Z,4.57
2022-08-28T16:55:22.703Z,4.50
2022-08-28T16:56:56.233Z,4.47
2022-08-28T16:58:31.124Z,4.60
2022-08-28T17:00:06.332Z,4.28
2022-08-28T17:01:40.963Z,4.20
2022-08-28T17:03:16.312Z,4.28
2022-08-28T17:04:55.225Z,4.00
2022-08-28T17:06:31.284Z,4.40
2022-08-28T17:08:04.796Z,4.60
2022-08-28T17:09:38.144Z,4.40
2022-08-28T17:11:11.920Z,4.53
2022-08-28T17:12:45.729Z,4.70
2022-08-28T17:14:21.160Z,4.45
2022-08-28T17:15:56.271Z,4.40
2022-08-28T17:17:29.993Z,4.43
2022-08-28T17:19:04.522Z,4.35
2022-08-28T17:20:55.754Z,4.07
2022-08-28T17:22:32.117Z,4.30
2022-08-28T17:24:06.954Z,4.35
2022-08-28T17:25:40.698Z,3.97
2022-08-28T17:27:14.493Z,4.60
2022-08-28T17:28:56.145Z,4.18
2022-08-28T17:30:31.023Z,4.50
2022-08-28T17:32:05.390Z,4.45
2022-08-28T17:33:39.378Z,4.60
2022-08-28T17:35:13.483Z,4.40
2022-08-28T17:36:46.896Z,6.38
2022-08-28T17:38:20.286Z,5.40
2022-08-28T17:39:54.423Z,4.68
2022-08-28T17:41:28.200Z,4.40
2022-08-28T17:43:03.120Z,4.50
2022-08-28T17:44:36.604Z,4.70
2022-08-28T17:46:13.557Z,4.45
2022-08-28T17:47:46.859Z,4.60
2022-08-28T17:49:20.192Z,4.50
2022-08-28T17:50:53.626Z,4.43
2022-08-28T17:52:27.641Z,4.50
2022-08-28T17:54:01.187Z,4.55
2022-08-28T17:55:34.633Z,4.78
2022-08-28T17:57:07.965Z,4.85
2022-08-28T17:58:41.329Z,5.18
2022-08-28T18:00:17.291Z,4.45
2022-08-28T18:01:52.313Z,4.72
2022-08-28T18:03:25.852Z,4.70
2022-08-28T18:04:59.862Z,5.28
2022-08-28T18:06:35.636Z,4.60
2022-08-28T18:08:09.374Z,4.70
2022-08-28T18:09:43.079Z,4.35
2022-08-28T18:11:17.195Z,4.57
2022-08-28T18:12:50.778Z,4.90
2022-08-28T18:14:24.311Z,4.80
2022-08-28T18:15:57.867Z,4.63
2022-08-28T18:17:32.901Z,4.80
2022-08-28T18:19:08.018Z,5.10
2022-08-28T18:20:41.630Z,4.93
2022-08-28T18:22:15.902Z,5.13
2022-08-28T18:23:49.430Z,4.88
2022-08-28T18:25:40.833Z,4.75
2022-08-28T18:27:15.579Z,4.80
2022-08-28T18:28:49.540Z,5.60
2022-08-28T18:30:23.063Z,5.68
2022-08-28T18:31:56.594Z,5.40
2022-08-28T18:33:31.686Z,5.10
2022-08-28T18:35:05.735Z,5.20
2022-08-28T18:36:41.718Z,5.53
2022-08-28T18:38:15.708Z,5.43
2022-08-28T18:39:49.430Z,5.70
2022-08-28T18:41:43.259Z,5.35
2022-08-28T18:43:20.369Z,6.10
2022-08-28T18:44:54.074Z,6.35
2022-08-28T18:46:27.769Z,5.78
2022-08-28T18:48:03.485Z,5.63
2022-08-28T18:49:38.682Z,5.93
2022-08-28T18:51:15.404Z,5.53
2022-08-28T18:52:56.050Z,6.80
2022-08-28T18:54:31.332Z,6.85
2022-08-28T18:56:05.549Z,6.32
2022-08-28T18:57:39.083Z,6.13
2022-08-28T18:59:12.908Z,6.50
2022-08-28T19:00:46.887Z,6.72
2022-08-28T19:02:21.760Z,6.57
2022-08-28T19:03:55.865Z,6.00
2022-08-28T19:05:30.917Z,6.43
2022-08-28T19:07:07.591Z,6.47
2022-08-28T19:08:41.421Z,6.07
2022-08-28T19:10:32.469Z,5.90
2022-08-28T19:12:08.141Z,6.10
2022-08-28T19:13:42.467Z,6.72
2022-08-28T19:15:18.364Z,6.78
2022-08-28T19:16:52.106Z,6.30
2022-08-28T19:18:25.811Z,6.63
2022-08-28T19:19:59.665Z,6.63
2022-08-28T19:21:34.892Z,6.28
2022-08-28T19:23:08.586Z,6.50
2022-08-28T19:24:42.489Z,6.07
2022-08-28T19:26:16.181Z,6.80
2022-08-28T19:27:50.019Z,6.97
2022-08-28T19:29:28.908Z,5.97
2022-08-28T19:31:02.980Z,6.22
2022-08-28T19:32:36.974Z,6.55
2022-08-28T19:34:11.533Z,7.38
2022-08-28T19:35:45.322Z,6.70
2022-08-28T19:37:21.005Z,6.60
2022-08-28T19:38:54.954Z,6.85
2022-08-28T19:40:29.183Z,6.57
2022-08-28T19:42:03.235Z,9.20
2022-08-28T19:43:44.248Z,6.88
2022-08-28T19:45:19.070Z,7.00
2022-08-28T19:46:52.721Z,6.80
2022-08-28T19:48:26.274Z,7.03
2022-08-28T19:50:00.054Z,7.10
2022-08-28T19:51:34.690Z,7.40
2022-08-28T19:53:10.265Z,6.88
2022-08-28T19:54:44.293Z,6.80
2022-08-28T19:56:22.374Z,6.90
2022-08-28T19:57:55.927Z,6.45
2022-08-28T19:59:29.416Z,7.40
2022-08-28T20:01:03.422Z,6.95
2022-08-28T20:02:37.134Z,7.15
2022-08-28T20:04:13.489Z,7.57
2022-08-28T20:05:48.605Z,7.30
2022-08-28T20:07:22.144Z,7.18
2022-08-28T20:08:56.819Z,6.93
2022-08-28T20:10:31.654Z,7.50
2022-08-28T20:12:06.333Z,7.85
2022-08-28T20:13:41.658Z,7.90
2022-08-28T20:15:16.220Z,8.00
2022-08-28T20:16:51.786Z,7.40
2022-08-28T20:18:25.190Z,8.35
2022-08-28T20:20:02.401Z,7.78
2022-08-28T20:21:38.382Z,7.78
2022-08-28T20:23:12.703Z,8.30
2022-08-28T20:24:47.705Z,8.05
2022-08-28T20:26:21.681Z,8.45
2022-08-28T20:27:59.523Z,8.25
2022-08-28T20:29:35.153Z,8.50
2022-08-28T20:31:10.042Z,8.00
2022-08-28T20:32:43.620Z,8.85
2022-08-28T20:34:19.577Z,9.20
2022-08-28T20:36:01.304Z,9.65
2022-08-28T20:37:35.060Z,9.68
2022-08-28T20:39:18.457Z,9.13
2022-08-28T20:40:53.496Z,8.35
2022-08-28T20:42:27.379Z,9.40
2022-08-28T20:44:07.336Z,9.05
2022-08-28T20:45:40.865Z,10.02
2022-08-28T20:47:15.155Z,9.50
2022-08-28T20:48:48.541Z,9.77
2022-08-28T20:50:22.580Z,9.85
2022-08-28T20:51:57.024Z,10.23
2022-08-28T20:53:37.318Z,9.77
2022-08-28T20:55:13.218Z,10.18
2022-08-28T20:56:47.509Z,11.30
2022-08-28T20:58:21.036Z,10.10
2022-08-28T20:59:54.527Z,9.40
2022-08-28T21:01:27.919Z,10.32
2022-08-28T21:03:01.441Z,10.32
2022-08-28T21:04:36.863Z,9.23
2022-08-28T21:06:12.122Z,10.35
2022-08-28T21:07:45.654Z,10.82
2022-08-28T21:09:19.747Z,11.13
2022-08-28T21:10:53.776Z,10.35
2022-08-28T21:12:28.731Z,10.80
2022-08-28T21:14:02.025Z,10.90
2022-08-28T21:15:36.342Z,10.70
2022-08-28T21:17:09.690Z,11.18
2022-08-28T21:19:05.052Z,11.32
2022-08-28T21:20:36.582Z,11.20
2022-08-28T21:22:10.046Z,11.43
2022-08-28T21:23:43.965Z,11.20
2022-08-28T21:25:18.238Z,11.38
2022-08-28T21:26:52.336Z,11.02
2022-08-28T21:28:26.422Z,10.25
2022-08-28T21:30:01.433Z,11.30
2022-08-28T21:31:34.429Z,11.20
2022-08-28T21:33:07.938Z,11.07
2022-08-28T21:34:40.312Z,11.15
2022-08-28T21:36:16.558Z,10.23
2022-08-28T21:37:51.081Z,9.55
2022-08-28T21:39:23.602Z,9.98
2022-08-28T21:40:57.072Z,10.10
2022-08-28T21:42:29.518Z,9.57
2022-08-28T21:44:05.176Z,9.27
2022-08-28T21:45:38.712Z,10.10
2022-08-28T21:47:12.330Z,10.70
2022-08-28T21:48:49.642Z,10.10
2022-08-28T21:50:23.272Z,10.32
2022-08-28T21:51:56.787Z,9.77
2022-08-28T21:53:31.447Z,9.73
2022-08-28T21:55:09.304Z,9.50
2022-08-28T21:56:43.176Z,9.65
2022-08-28T21:58:16.819Z,8.75